BAW7W EGLL-KIAD
Flight info
| Callsign | BAW7W |
|---|---|
| Flight time | N/A |
| Altitude | 38000 |
| Route | CPT L9 BUCGO DCT FELCA DCT OFSOX DCT BANBA DCT TOBOR/M083F390 NATC ELSIR/N0466F400 N402C ALLEX DCT KAYCC DCT KYLOH DCT BAF HYPER9 |
| Aircraft | B772/H-SDE2E3FGHIJ5LORVWXY/LB1D1 |
Departure
| Time | 2026-05-06 10:43 |
|---|---|
| Airport | London Heathrow Airport (EGLL) |
Arrival
| Time | N/A |
|---|---|
| Airport | Washington Dulles International Airport (KIAD) |
| Time | Latitude | Longitude | Altitude | Speed | Heading |
|---|---|---|---|---|---|
| 2026-05-06 10:10 | 51.47144 | -0.47498 | 90 ft | 0 kts | 270° |
| 2026-05-06 10:22 | 51.47144 | -0.47474 | 94 ft | 4 kts | 270° |
| 2026-05-06 10:23 | 51.47144 | -0.47430 | 91 ft | 4 kts | 270° |
| 2026-05-06 10:23 | 51.47144 | -0.47395 | 92 ft | 4 kts | 266° |
| 2026-05-06 10:23 | 51.47152 | -0.47361 | 93 ft | 4 kts | 209° |
| 2026-05-06 10:23 | 51.47175 | -0.47353 | 90 ft | 4 kts | 180° |
| 2026-05-06 10:24 | 51.47199 | -0.47353 | 90 ft | 1 kts | 180° |
| 2026-05-06 10:30 | 51.47166 | -0.47352 | 90 ft | 12 kts | 180° |
| 2026-05-06 10:30 | 51.47077 | -0.47352 | 90 ft | 13 kts | 179° |
| 2026-05-06 10:31 | 51.46987 | -0.47351 | 92 ft | 13 kts | 179° |
| 2026-05-06 10:31 | 51.46898 | -0.47350 | 90 ft | 13 kts | 179° |
| 2026-05-06 10:31 | 51.46809 | -0.47349 | 90 ft | 13 kts | 179° |
| 2026-05-06 10:31 | 51.46722 | -0.47348 | 92 ft | 9 kts | 179° |
| 2026-05-06 10:32 | 51.46670 | -0.47379 | 92 ft | 8 kts | 229° |
| 2026-05-06 10:32 | 51.46657 | -0.47469 | 93 ft | 8 kts | 266° |
| 2026-05-06 10:32 | 51.46656 | -0.47563 | 93 ft | 8 kts | 269° |
| 2026-05-06 10:32 | 51.46655 | -0.47657 | 93 ft | 8 kts | 270° |
| 2026-05-06 10:33 | 51.46655 | -0.47752 | 93 ft | 8 kts | 269° |
| 2026-05-06 10:33 | 51.46654 | -0.47846 | 90 ft | 8 kts | 270° |
| 2026-05-06 10:33 | 51.46654 | -0.47940 | 92 ft | 8 kts | 270° |
| 2026-05-06 10:33 | 51.46654 | -0.48003 | 91 ft | 0 kts | 269° |
| 2026-05-06 10:35 | 51.46654 | -0.48065 | 92 ft | 12 kts | 270° |
| 2026-05-06 10:35 | 51.46653 | -0.48197 | 91 ft | 12 kts | 270° |
| 2026-05-06 10:35 | 51.46653 | -0.48329 | 94 ft | 12 kts | 270° |
| 2026-05-06 10:35 | 51.46653 | -0.48453 | 92 ft | 11 kts | 270° |
| 2026-05-06 10:36 | 51.46653 | -0.48566 | 93 ft | 10 kts | 270° |
| 2026-05-06 10:36 | 51.46652 | -0.48664 | 90 ft | 8 kts | 269° |
| 2026-05-06 10:36 | 51.46643 | -0.48718 | 94 ft | 4 kts | 240° |
| 2026-05-06 10:36 | 51.46637 | -0.48730 | 94 ft | 0 kts | 228° |
| 2026-05-06 10:38 | 51.46634 | -0.48734 | 94 ft | 4 kts | 227° |
| 2026-05-06 10:38 | 51.46579 | -0.48775 | 92 ft | 11 kts | 192° |
| 2026-05-06 10:38 | 51.46507 | -0.48761 | 93 ft | 11 kts | 146° |
| 2026-05-06 10:39 | 51.46479 | -0.48654 | 93 ft | 11 kts | 94° |
| 2026-05-06 10:39 | 51.46479 | -0.48534 | 91 ft | 10 kts | 89° |
| 2026-05-06 10:39 | 51.46479 | -0.48505 | 91 ft | 0 kts | 90° |
| 2026-05-06 10:41 | 51.46479 | -0.48503 | 91 ft | 4 kts | 90° |
| 2026-05-06 10:42 | 51.46480 | -0.48219 | 93 ft | 57 kts | 90° |
| 2026-05-06 10:42 | 51.46484 | -0.47177 | 94 ft | 127 kts | 90° |
| 2026-05-06 10:42 | 51.46493 | -0.45442 | 117 ft | 181 kts | 88° |
| 2026-05-06 10:42 | 51.46481 | -0.43247 | 416 ft | 211 kts | 86° |
| 2026-05-06 10:43 | 51.46356 | -0.40877 | 1107 ft | 217 kts | 102° |
| 2026-05-06 10:43 | 51.45620 | -0.38689 | 1628 ft | 236 kts | 130° |
| 2026-05-06 10:43 | 51.44216 | -0.37200 | 1950 ft | 255 kts | 162° |
| 2026-05-06 10:44 | 51.40789 | -0.38391 | 3164 ft | 269 kts | 226° |
| 2026-05-06 10:44 | 51.39813 | -0.40905 | 3765 ft | 268 kts | 260° |
| 2026-05-06 10:44 | 51.39808 | -0.43802 | 4476 ft | 257 kts | 287° |
| 2026-05-06 10:44 | 51.40219 | -0.46586 | 5114 ft | 259 kts | 287° |
| 2026-05-06 10:45 | 51.40610 | -0.49401 | 5792 ft | 259 kts | 286° |
| 2026-05-06 10:45 | 51.40986 | -0.52234 | 6037 ft | 262 kts | 285° |
| 2026-05-06 10:45 | 51.41349 | -0.55082 | 6572 ft | 261 kts | 284° |
| 2026-05-06 10:45 | 51.41704 | -0.57951 | 7222 ft | 263 kts | 284° |
| 2026-05-06 10:46 | 51.42054 | -0.60843 | 7807 ft | 267 kts | 283° |
| 2026-05-06 10:46 | 51.42405 | -0.63789 | 8363 ft | 271 kts | 283° |
| 2026-05-06 10:46 | 51.42756 | -0.66780 | 8956 ft | 274 kts | 283° |
| 2026-05-06 10:46 | 51.43103 | -0.69769 | 9496 ft | 279 kts | 282° |
| 2026-05-06 10:47 | 51.43457 | -0.72836 | 10067 ft | 280 kts | 283° |
| 2026-05-06 10:47 | 51.43817 | -0.75926 | 10583 ft | 284 kts | 282° |
| 2026-05-06 10:47 | 51.44211 | -0.79145 | 10767 ft | 303 kts | 283° |
| 2026-05-06 10:47 | 51.44632 | -0.82562 | 10921 ft | 322 kts | 283° |
| 2026-05-06 10:48 | 51.45077 | -0.86190 | 11216 ft | 338 kts | 282° |
| 2026-05-06 10:48 | 51.45524 | -0.89925 | 11913 ft | 343 kts | 282° |
| 2026-05-06 10:48 | 51.45958 | -0.93705 | 12386 ft | 353 kts | 281° |
| 2026-05-06 10:48 | 51.46396 | -0.97562 | 12874 ft | 351 kts | 281° |
| 2026-05-06 10:49 | 51.46832 | -1.01407 | 13315 ft | 350 kts | 281° |
| 2026-05-06 10:49 | 51.47275 | -1.05264 | 13651 ft | 353 kts | 281° |
| 2026-05-06 10:49 | 51.47746 | -1.09149 | 13915 ft | 357 kts | 284° |
| 2026-05-06 10:49 | 51.48558 | -1.12909 | 14595 ft | 358 kts | 295° |
| 2026-05-06 10:50 | 51.49766 | -1.16415 | 15030 ft | 357 kts | 303° |
| 2026-05-06 10:50 | 51.51242 | -1.19629 | 15045 ft | 358 kts | 308° |
| 2026-05-06 10:50 | 51.52790 | -1.22790 | 15585 ft | 361 kts | 308° |
| 2026-05-06 10:50 | 51.54336 | -1.25975 | 16398 ft | 362 kts | 307° |
| 2026-05-06 10:51 | 51.55885 | -1.29191 | 17103 ft | 367 kts | 307° |
| 2026-05-06 10:51 | 51.57459 | -1.32479 | 17634 ft | 374 kts | 307° |
| 2026-05-06 10:51 | 51.59028 | -1.35769 | 18374 ft | 377 kts | 307° |
| 2026-05-06 10:51 | 51.60604 | -1.39163 | 18994 ft | 379 kts | 303° |
| 2026-05-06 10:52 | 51.61962 | -1.42808 | 19618 ft | 380 kts | 297° |
| 2026-05-06 10:52 | 51.63184 | -1.46593 | 20141 ft | 384 kts | 297° |
| 2026-05-06 10:52 | 51.64433 | -1.50437 | 20614 ft | 389 kts | 297° |
| 2026-05-06 10:52 | 51.65703 | -1.54314 | 21225 ft | 391 kts | 297° |
| 2026-05-06 10:53 | 51.66981 | -1.58195 | 21773 ft | 394 kts | 297° |
| 2026-05-06 10:53 | 51.68273 | -1.62118 | 22346 ft | 397 kts | 297° |
| 2026-05-06 10:53 | 51.69463 | -1.66141 | 22883 ft | 399 kts | 290° |
| 2026-05-06 10:53 | 51.70313 | -1.70359 | 23391 ft | 402 kts | 284° |
| 2026-05-06 10:54 | 51.70901 | -1.74790 | 23855 ft | 405 kts | 277° |
| 2026-05-06 10:54 | 51.71216 | -1.79326 | 24298 ft | 408 kts | 276° |
| 2026-05-06 10:54 | 51.71517 | -1.83883 | 24750 ft | 410 kts | 276° |
| 2026-05-06 10:54 | 51.71835 | -1.88482 | 25181 ft | 413 kts | 276° |
| 2026-05-06 10:55 | 51.72162 | -1.93103 | 25640 ft | 416 kts | 276° |
| 2026-05-06 10:55 | 51.72493 | -1.97757 | 26087 ft | 418 kts | 276° |
| 2026-05-06 10:55 | 51.72826 | -2.02453 | 26521 ft | 421 kts | 276° |
| 2026-05-06 10:55 | 51.73157 | -2.07156 | 26947 ft | 424 kts | 276° |
| 2026-05-06 10:56 | 51.73488 | -2.11902 | 27373 ft | 427 kts | 276° |
| 2026-05-06 10:56 | 51.73820 | -2.16680 | 27798 ft | 430 kts | 276° |
| 2026-05-06 10:56 | 51.74150 | -2.21430 | 28214 ft | 433 kts | 276° |
| 2026-05-06 10:56 | 51.74485 | -2.26275 | 28635 ft | 436 kts | 276° |
| 2026-05-06 10:57 | 51.74822 | -2.31162 | 29040 ft | 438 kts | 276° |
| 2026-05-06 10:57 | 51.75463 | -2.40552 | 29770 ft | 444 kts | 276° |
| 2026-05-06 10:57 | 51.75800 | -2.45521 | 30163 ft | 446 kts | 276° |
| 2026-05-06 10:58 | 51.76135 | -2.50512 | 30540 ft | 447 kts | 276° |
| 2026-05-06 10:58 | 51.76465 | -2.55507 | 30898 ft | 449 kts | 276° |
| 2026-05-06 10:58 | 51.76779 | -2.60536 | 31202 ft | 451 kts | 276° |
| 2026-05-06 10:58 | 51.77095 | -2.65596 | 31511 ft | 454 kts | 276° |
| 2026-05-06 10:59 | 51.77420 | -2.70673 | 31792 ft | 456 kts | 276° |
| 2026-05-06 10:59 | 51.77749 | -2.75783 | 32101 ft | 457 kts | 276° |
| 2026-05-06 10:59 | 51.78078 | -2.80884 | 32522 ft | 455 kts | 276° |
| 2026-05-06 10:59 | 51.78397 | -2.85893 | 32993 ft | 453 kts | 276° |
| 2026-05-06 11:00 | 51.78717 | -2.90943 | 33413 ft | 451 kts | 275° |
| 2026-05-06 11:00 | 51.79033 | -2.95976 | 33871 ft | 449 kts | 275° |
| 2026-05-06 11:00 | 51.79345 | -3.00993 | 34275 ft | 447 kts | 275° |
| 2026-05-06 11:00 | 51.79654 | -3.06001 | 34533 ft | 448 kts | 275° |
| 2026-05-06 11:01 | 51.79960 | -3.11008 | 34753 ft | 449 kts | 275° |
| 2026-05-06 11:01 | 51.80266 | -3.16042 | 34981 ft | 451 kts | 275° |
| 2026-05-06 11:01 | 51.80571 | -3.21084 | 35238 ft | 451 kts | 275° |
| 2026-05-06 11:01 | 51.80874 | -3.26135 | 35507 ft | 451 kts | 275° |
| 2026-05-06 11:02 | 51.81175 | -3.31190 | 35753 ft | 452 kts | 275° |
| 2026-05-06 11:02 | 51.81475 | -3.36264 | 35932 ft | 454 kts | 275° |
| 2026-05-06 11:02 | 51.81775 | -3.41369 | 35984 ft | 458 kts | 275° |
| 2026-05-06 11:03 | 51.82371 | -3.51609 | 36009 ft | 453 kts | 275° |
| 2026-05-06 11:03 | 51.83442 | -3.61580 | 36027 ft | 450 kts | 282° |
| 2026-05-06 11:04 | 51.84754 | -3.71425 | 36024 ft | 451 kts | 281° |
| 2026-05-06 11:04 | 51.86054 | -3.81371 | 36025 ft | 452 kts | 281° |
| 2026-05-06 11:05 | 51.87332 | -3.91333 | 36022 ft | 452 kts | 281° |
| 2026-05-06 11:05 | 51.88598 | -4.01319 | 36023 ft | 453 kts | 281° |
| 2026-05-06 11:06 | 51.89856 | -4.11311 | 36021 ft | 452 kts | 281° |
| 2026-05-06 11:06 | 51.91097 | -4.21234 | 36021 ft | 452 kts | 281° |
| 2026-05-06 11:07 | 51.92340 | -4.31255 | 36164 ft | 455 kts | 281° |
| 2026-05-06 11:07 | 51.92962 | -4.36289 | 36414 ft | 455 kts | 281° |
| 2026-05-06 11:07 | 51.93580 | -4.41312 | 36678 ft | 455 kts | 281° |
| 2026-05-06 11:07 | 51.94197 | -4.46346 | 36907 ft | 455 kts | 281° |
| 2026-05-06 11:08 | 51.94811 | -4.51377 | 37121 ft | 456 kts | 281° |
| 2026-05-06 11:08 | 51.95426 | -4.56434 | 37331 ft | 457 kts | 281° |
| 2026-05-06 11:08 | 51.96038 | -4.61487 | 37574 ft | 457 kts | 281° |
| 2026-05-06 11:08 | 51.96649 | -4.66551 | 37816 ft | 456 kts | 281° |
| 2026-05-06 11:09 | 51.97249 | -4.71543 | 37950 ft | 459 kts | 281° |
| 2026-05-06 11:09 | 51.98472 | -4.81772 | 38031 ft | 463 kts | 281° |
| 2026-05-06 11:10 | 51.99688 | -4.92025 | 38017 ft | 460 kts | 281° |
| 2026-05-06 11:10 | 52.00882 | -5.02161 | 38030 ft | 456 kts | 281° |
| 2026-05-06 11:11 | 52.02062 | -5.12265 | 38031 ft | 454 kts | 280° |
| 2026-05-06 11:11 | 52.02596 | -5.22467 | 38029 ft | 454 kts | 269° |
| 2026-05-06 11:12 | 52.02057 | -5.32614 | 38043 ft | 454 kts | 263° |
| 2026-05-06 11:12 | 52.01296 | -5.42841 | 38035 ft | 456 kts | 263° |
| 2026-05-06 11:13 | 52.00549 | -5.53095 | 38042 ft | 458 kts | 264° |
| 2026-05-06 11:13 | 51.99936 | -5.61625 | 38036 ft | 459 kts | 264° |
| 2026-05-06 11:14 | 51.99193 | -5.71931 | 38041 ft | 460 kts | 264° |
| 2026-05-06 11:14 | 51.98440 | -5.82249 | 38036 ft | 461 kts | 263° |
| 2026-05-06 11:15 | 51.97676 | -5.92571 | 38039 ft | 461 kts | 263° |
| 2026-05-06 11:15 | 51.96902 | -6.02894 | 38043 ft | 461 kts | 263° |
| 2026-05-06 11:16 | 51.96121 | -6.13215 | 38038 ft | 461 kts | 263° |
| 2026-05-06 11:16 | 51.95617 | -6.23493 | 38036 ft | 460 kts | 271° |
| 2026-05-06 11:17 | 51.96202 | -6.33800 | 38044 ft | 459 kts | 279° |
| 2026-05-06 11:17 | 51.97250 | -6.44019 | 38042 ft | 459 kts | 279° |
| 2026-05-06 11:18 | 51.98290 | -6.54243 | 38051 ft | 459 kts | 279° |
| 2026-05-06 11:18 | 51.99300 | -6.64471 | 38047 ft | 459 kts | 279° |
| 2026-05-06 11:19 | 52.00291 | -6.74709 | 38042 ft | 459 kts | 279° |
| 2026-05-06 11:19 | 52.01268 | -6.84938 | 38041 ft | 459 kts | 279° |
| 2026-05-06 11:20 | 52.02232 | -6.95115 | 38040 ft | 459 kts | 279° |
| 2026-05-06 11:20 | 52.03194 | -7.05363 | 38048 ft | 459 kts | 279° |
| 2026-05-06 11:21 | 52.04147 | -7.15617 | 38046 ft | 459 kts | 278° |
| 2026-05-06 11:21 | 52.05090 | -7.25868 | 38045 ft | 459 kts | 278° |
| 2026-05-06 11:22 | 52.06025 | -7.36128 | 38048 ft | 459 kts | 278° |
| 2026-05-06 11:22 | 52.06951 | -7.46384 | 38040 ft | 459 kts | 278° |
| 2026-05-06 11:23 | 52.07867 | -7.56645 | 38029 ft | 459 kts | 278° |
| 2026-05-06 11:23 | 52.08771 | -7.66865 | 38030 ft | 459 kts | 278° |
| 2026-05-06 11:24 | 52.09671 | -7.77143 | 38027 ft | 459 kts | 278° |
| 2026-05-06 11:24 | 52.10563 | -7.87441 | 38028 ft | 459 kts | 278° |
| 2026-05-06 11:25 | 52.11444 | -7.97728 | 38024 ft | 459 kts | 278° |
| 2026-05-06 11:25 | 52.12317 | -8.08020 | 38023 ft | 459 kts | 278° |
| 2026-05-06 11:26 | 52.13176 | -8.18261 | 38021 ft | 459 kts | 278° |
| 2026-05-06 11:26 | 52.14031 | -8.28562 | 38016 ft | 459 kts | 278° |
| 2026-05-06 11:27 | 52.14878 | -8.38869 | 38002 ft | 459 kts | 278° |
| 2026-05-06 11:27 | 52.15714 | -8.49176 | 38008 ft | 459 kts | 278° |
| 2026-05-06 11:28 | 52.16543 | -8.59498 | 38016 ft | 459 kts | 278° |
| 2026-05-06 11:28 | 52.17362 | -8.69818 | 38032 ft | 459 kts | 278° |
| 2026-05-06 11:29 | 52.18174 | -8.80151 | 38024 ft | 460 kts | 278° |
| 2026-05-06 11:29 | 52.18976 | -8.90497 | 38032 ft | 460 kts | 278° |
| 2026-05-06 11:30 | 52.19766 | -9.00802 | 38030 ft | 460 kts | 278° |
| 2026-05-06 11:30 | 52.20553 | -9.11183 | 38035 ft | 461 kts | 278° |
| 2026-05-06 11:31 | 52.21330 | -9.21555 | 38030 ft | 461 kts | 278° |
| 2026-05-06 11:31 | 52.22095 | -9.31897 | 38033 ft | 461 kts | 278° |
| 2026-05-06 11:32 | 52.22855 | -9.42296 | 38008 ft | 462 kts | 278° |
| 2026-05-06 11:32 | 52.23606 | -9.52710 | 38032 ft | 462 kts | 278° |
| 2026-05-06 11:33 | 52.24350 | -9.63144 | 38020 ft | 463 kts | 277° |
| 2026-05-06 11:33 | 52.25085 | -9.73588 | 38020 ft | 463 kts | 277° |
| 2026-05-06 11:34 | 52.25811 | -9.84033 | 38031 ft | 463 kts | 277° |
| 2026-05-06 11:34 | 52.26523 | -9.94427 | 38026 ft | 463 kts | 277° |
| 2026-05-06 11:35 | 52.27230 | -10.04877 | 38051 ft | 463 kts | 277° |
| 2026-05-06 11:35 | 52.27930 | -10.15364 | 38052 ft | 464 kts | 277° |
| 2026-05-06 11:36 | 52.28620 | -10.25839 | 38049 ft | 464 kts | 277° |
| 2026-05-06 11:36 | 52.29302 | -10.36336 | 38057 ft | 464 kts | 277° |
| 2026-05-06 11:37 | 52.29973 | -10.46819 | 38041 ft | 464 kts | 277° |
| 2026-05-06 11:37 | 52.30631 | -10.57254 | 38047 ft | 464 kts | 277° |
| 2026-05-06 11:38 | 52.31285 | -10.67752 | 38062 ft | 464 kts | 277° |
| 2026-05-06 11:38 | 52.31928 | -10.78250 | 38063 ft | 464 kts | 277° |
| 2026-05-06 11:39 | 52.32563 | -10.88756 | 38056 ft | 464 kts | 277° |
| 2026-05-06 11:39 | 52.33188 | -10.99260 | 38040 ft | 464 kts | 277° |
| 2026-05-06 11:40 | 52.33804 | -11.09773 | 38052 ft | 464 kts | 277° |
| 2026-05-06 11:40 | 52.34407 | -11.20220 | 38057 ft | 465 kts | 277° |
| 2026-05-06 11:41 | 52.35006 | -11.30750 | 38056 ft | 465 kts | 277° |
| 2026-05-06 11:41 | 52.35595 | -11.41288 | 38062 ft | 465 kts | 277° |
| 2026-05-06 11:42 | 52.36176 | -11.51854 | 38042 ft | 465 kts | 277° |
| 2026-05-06 11:42 | 52.36747 | -11.62409 | 38060 ft | 465 kts | 277° |
| 2026-05-06 11:43 | 52.37306 | -11.72915 | 38061 ft | 466 kts | 277° |
| 2026-05-06 11:43 | 52.37858 | -11.83481 | 38062 ft | 466 kts | 277° |
| 2026-05-06 11:44 | 52.38670 | -11.99352 | 38051 ft | 466 kts | 277° |
| 2026-05-06 11:44 | 52.39199 | -12.09937 | 38068 ft | 466 kts | 277° |
| 2026-05-06 11:45 | 52.39716 | -12.20456 | 38059 ft | 465 kts | 277° |
| 2026-05-06 11:45 | 52.40225 | -12.31013 | 38058 ft | 464 kts | 277° |
| 2026-05-06 11:46 | 52.40724 | -12.41566 | 38058 ft | 463 kts | 277° |
| 2026-05-06 11:46 | 52.41213 | -12.52083 | 38045 ft | 462 kts | 277° |
| 2026-05-06 11:47 | 52.41691 | -12.62589 | 38058 ft | 462 kts | 277° |
| 2026-05-06 11:47 | 52.42159 | -12.73076 | 38059 ft | 461 kts | 276° |
| 2026-05-06 11:48 | 52.42618 | -12.83563 | 38063 ft | 461 kts | 276° |
| 2026-05-06 11:48 | 52.43065 | -12.93995 | 38062 ft | 462 kts | 276° |
| 2026-05-06 11:49 | 52.43506 | -13.04508 | 38056 ft | 462 kts | 276° |
| 2026-05-06 11:49 | 52.43938 | -13.15032 | 38067 ft | 462 kts | 276° |
| 2026-05-06 11:50 | 52.44361 | -13.25558 | 38066 ft | 463 kts | 276° |
| 2026-05-06 11:50 | 52.44773 | -13.36037 | 38067 ft | 463 kts | 276° |
| 2026-05-06 11:51 | 52.45178 | -13.46588 | 38064 ft | 464 kts | 276° |
| 2026-05-06 11:51 | 52.45574 | -13.57166 | 38051 ft | 464 kts | 276° |
| 2026-05-06 11:52 | 52.45960 | -13.67724 | 38059 ft | 464 kts | 276° |
| 2026-05-06 11:52 | 52.46337 | -13.78288 | 38070 ft | 463 kts | 276° |
| 2026-05-06 11:53 | 52.46703 | -13.88807 | 38059 ft | 462 kts | 276° |
| 2026-05-06 11:53 | 52.47057 | -13.99255 | 38060 ft | 460 kts | 276° |
| 2026-05-06 11:54 | 52.47403 | -14.09729 | 38043 ft | 459 kts | 275° |
| 2026-05-06 11:54 | 52.47739 | -14.20182 | 38066 ft | 458 kts | 275° |
| 2026-05-06 11:55 | 52.48065 | -14.30614 | 38071 ft | 458 kts | 275° |
| 2026-05-06 11:55 | 52.48382 | -14.41062 | 38068 ft | 458 kts | 275° |
| 2026-05-06 11:56 | 52.48690 | -14.51512 | 38060 ft | 458 kts | 275° |
| 2026-05-06 11:56 | 52.48989 | -14.61965 | 38055 ft | 459 kts | 275° |
| 2026-05-06 11:57 | 52.49278 | -14.72373 | 38059 ft | 459 kts | 275° |
| 2026-05-06 11:57 | 52.49559 | -14.82860 | 38051 ft | 460 kts | 275° |
| 2026-05-06 11:58 | 52.49833 | -14.93351 | 38055 ft | 460 kts | 275° |
| 2026-05-06 11:58 | 52.50381 | -15.03778 | 38045 ft | 457 kts | 283° |
| 2026-05-06 11:59 | 52.51645 | -15.14003 | 38034 ft | 457 kts | 284° |
| 2026-05-06 11:59 | 52.52914 | -15.24199 | 38062 ft | 457 kts | 283° |
| 2026-05-06 12:00 | 52.54151 | -15.34394 | 38065 ft | 457 kts | 283° |
| 2026-05-06 12:00 | 52.55372 | -15.44652 | 38060 ft | 457 kts | 283° |
| 2026-05-06 12:01 | 52.56584 | -15.54939 | 38057 ft | 458 kts | 283° |
| 2026-05-06 12:01 | 52.57582 | -15.63482 | 38060 ft | 458 kts | 283° |
| 2026-05-06 12:02 | 52.58969 | -15.75435 | 38060 ft | 458 kts | 283° |
| 2026-05-06 12:02 | 52.59960 | -15.84041 | 38058 ft | 458 kts | 283° |
| 2026-05-06 12:03 | 52.61136 | -15.94333 | 38056 ft | 457 kts | 283° |
| 2026-05-06 12:03 | 52.62297 | -16.04569 | 38057 ft | 457 kts | 283° |
| 2026-05-06 12:04 | 52.63455 | -16.14867 | 38063 ft | 457 kts | 282° |
| 2026-05-06 12:04 | 52.64604 | -16.25173 | 38045 ft | 457 kts | 282° |
| 2026-05-06 12:05 | 52.65740 | -16.35449 | 38055 ft | 456 kts | 282° |
| 2026-05-06 12:05 | 52.66867 | -16.45724 | 38052 ft | 455 kts | 282° |
| 2026-05-06 12:06 | 52.67983 | -16.55989 | 38057 ft | 455 kts | 282° |
| 2026-05-06 12:06 | 52.69090 | -16.66251 | 38054 ft | 454 kts | 282° |
| 2026-05-06 12:07 | 52.70179 | -16.76442 | 38054 ft | 454 kts | 282° |
| 2026-05-06 12:07 | 52.71267 | -16.86701 | 38049 ft | 454 kts | 282° |
| 2026-05-06 12:08 | 52.72345 | -16.96953 | 38056 ft | 454 kts | 281° |
| 2026-05-06 12:08 | 52.73416 | -17.07237 | 38054 ft | 454 kts | 281° |
| 2026-05-06 12:09 | 52.74479 | -17.17529 | 38063 ft | 455 kts | 281° |
| 2026-05-06 12:09 | 52.75531 | -17.27812 | 38056 ft | 455 kts | 281° |
| 2026-05-06 12:10 | 52.76575 | -17.38107 | 38037 ft | 454 kts | 281° |
| 2026-05-06 12:10 | 52.77604 | -17.48342 | 38050 ft | 454 kts | 281° |
| 2026-05-06 12:11 | 52.78628 | -17.58624 | 38053 ft | 453 kts | 281° |
| 2026-05-06 12:11 | 52.79643 | -17.68913 | 38051 ft | 453 kts | 281° |
| 2026-05-06 12:12 | 52.80648 | -17.79185 | 38047 ft | 453 kts | 281° |
| 2026-05-06 12:12 | 52.81644 | -17.89470 | 38050 ft | 453 kts | 281° |
| 2026-05-06 12:13 | 52.82632 | -17.99758 | 38046 ft | 453 kts | 280° |
| 2026-05-06 12:13 | 52.83605 | -18.09993 | 38050 ft | 453 kts | 280° |
| 2026-05-06 12:14 | 52.84576 | -18.20313 | 38059 ft | 453 kts | 280° |
| 2026-05-06 12:14 | 52.85538 | -18.30623 | 38046 ft | 453 kts | 280° |
| 2026-05-06 12:15 | 52.86490 | -18.40941 | 38048 ft | 453 kts | 280° |
| 2026-05-06 12:15 | 52.87426 | -18.51179 | 38040 ft | 452 kts | 279° |
| 2026-05-06 12:16 | 52.88359 | -18.61481 | 38058 ft | 452 kts | 279° |
| 2026-05-06 12:16 | 52.89285 | -18.71810 | 38048 ft | 453 kts | 279° |
| 2026-05-06 12:17 | 52.90201 | -18.82132 | 38044 ft | 453 kts | 279° |
| 2026-05-06 12:17 | 52.91109 | -18.92470 | 38050 ft | 453 kts | 279° |
| 2026-05-06 12:18 | 52.92007 | -19.02811 | 38047 ft | 453 kts | 279° |
| 2026-05-06 12:18 | 52.92892 | -19.13096 | 38044 ft | 454 kts | 279° |
| 2026-05-06 12:19 | 52.93775 | -19.23465 | 38061 ft | 454 kts | 278° |
| 2026-05-06 12:19 | 52.94650 | -19.33861 | 38045 ft | 455 kts | 278° |
| 2026-05-06 12:20 | 52.95515 | -19.44249 | 38049 ft | 455 kts | 278° |
| 2026-05-06 12:20 | 52.96350 | -19.54376 | 38030 ft | 444 kts | 278° |
| 2026-05-06 12:21 | 52.97167 | -19.64410 | 38028 ft | 434 kts | 278° |
| 2026-05-06 12:21 | 52.97960 | -19.74236 | 38036 ft | 426 kts | 278° |
| 2026-05-06 12:22 | 52.98732 | -19.83893 | 38036 ft | 418 kts | 278° |
| 2026-05-06 12:22 | 52.99483 | -19.93385 | 38035 ft | 412 kts | 278° |
| 2026-05-06 12:23 | 53.00147 | -20.02758 | 38037 ft | 406 kts | 275° |
| 2026-05-06 12:23 | 53.00535 | -20.11978 | 38034 ft | 400 kts | 274° |
| 2026-05-06 12:24 | 53.00886 | -20.21166 | 38032 ft | 395 kts | 274° |
| 2026-05-06 12:24 | 53.01235 | -20.30226 | 38048 ft | 391 kts | 274° |
| 2026-05-06 12:25 | 53.01581 | -20.39191 | 38043 ft | 386 kts | 274° |
| 2026-05-06 12:25 | 53.01920 | -20.48049 | 38043 ft | 382 kts | 274° |
| 2026-05-06 12:26 | 53.02249 | -20.56798 | 38041 ft | 377 kts | 274° |
| 2026-05-06 12:26 | 53.02567 | -20.65408 | 38037 ft | 373 kts | 273° |
| 2026-05-06 12:27 | 53.02877 | -20.73993 | 37922 ft | 374 kts | 273° |
| 2026-05-06 12:27 | 53.03187 | -20.82728 | 38054 ft | 383 kts | 273° |
| 2026-05-06 12:28 | 53.03498 | -20.91704 | 38068 ft | 396 kts | 273° |
| 2026-05-06 12:28 | 53.03813 | -21.01008 | 38065 ft | 410 kts | 273° |
| 2026-05-06 12:29 | 53.04130 | -21.10583 | 38068 ft | 424 kts | 272° |
| 2026-05-06 12:29 | 53.04451 | -21.20521 | 38070 ft | 437 kts | 272° |
| 2026-05-06 12:30 | 53.04773 | -21.30761 | 38067 ft | 450 kts | 272° |
| 2026-05-06 12:30 | 53.05094 | -21.41277 | 38063 ft | 460 kts | 272° |
| 2026-05-06 12:31 | 53.05410 | -21.51912 | 38056 ft | 466 kts | 272° |
| 2026-05-06 12:31 | 53.05721 | -21.62714 | 38038 ft | 460 kts | 272° |
| 2026-05-06 12:32 | 53.06013 | -21.73205 | 38052 ft | 456 kts | 272° |
| 2026-05-06 12:32 | 53.06298 | -21.83741 | 38054 ft | 456 kts | 272° |
| 2026-05-06 12:33 | 53.06573 | -21.94305 | 38056 ft | 457 kts | 272° |
| 2026-05-06 12:33 | 53.06838 | -22.04800 | 38059 ft | 458 kts | 271° |
| 2026-05-06 12:34 | 53.07095 | -22.15396 | 38058 ft | 459 kts | 271° |